sensor_id;sensor_type;location;lat;lon;timestamp;pressure;altitude;pressure_sealevel;temperature
40624;BMP280;26325;48.594;11.650;2022-08-02T00:01:30;96804.13;;;19.87
40624;BMP280;26325;48.594;11.650;2022-08-02T00:03:56;96809.50;;;19.83
40624;BMP280;26325;48.594;11.650;2022-08-02T00:06:21;96814.72;;;19.83
40624;BMP280;26325;48.594;11.650;2022-08-02T00:08:47;96818.53;;;19.77
40624;BMP280;26325;48.594;11.650;2022-08-02T00:11:12;96820.66;;;19.75
40624;BMP280;26325;48.594;11.650;2022-08-02T00:13:38;96823.75;;;19.77
40624;BMP280;26325;48.594;11.650;2022-08-02T00:16:03;96821.59;;;19.79
40624;BMP280;26325;48.594;11.650;2022-08-02T00:18:29;96805.88;;;19.79
40624;BMP280;26325;48.594;11.650;2022-08-02T00:20:57;96818.22;;;19.78
40624;BMP280;26325;48.594;11.650;2022-08-02T00:23:22;96821.03;;;19.82
40624;BMP280;26325;48.594;11.650;2022-08-02T00:25:48;96816.28;;;19.84
40624;BMP280;26325;48.594;11.650;2022-08-02T00:28:13;96826.75;;;19.84
40624;BMP280;26325;48.594;11.650;2022-08-02T00:30:39;96827.81;;;19.83
40624;BMP280;26325;48.594;11.650;2022-08-02T00:33:04;96825.22;;;19.83
40624;BMP280;26325;48.594;11.650;2022-08-02T00:35:31;96822.50;;;19.74
40624;BMP280;26325;48.594;11.650;2022-08-02T00:37:56;96814.03;;;19.64
40624;BMP280;26325;48.594;11.650;2022-08-02T00:40:22;96812.63;;;19.53
40624;BMP280;26325;48.594;11.650;2022-08-02T00:43:09;96818.63;;;19.41
40624;BMP280;26325;48.594;11.650;2022-08-02T00:45:37;96819.47;;;19.23
40624;BMP280;26325;48.594;11.650;2022-08-02T00:48:03;96817.22;;;19.17
40624;BMP280;26325;48.594;11.650;2022-08-02T00:50:30;96818.00;;;19.17
40624;BMP280;26325;48.594;11.650;2022-08-02T00:52:56;96809.44;;;19.12
40624;BMP280;26325;48.594;11.650;2022-08-02T00:55:21;96816.41;;;19.03
40624;BMP280;26325;48.594;11.650;2022-08-02T00:57:47;96814.38;;;19.00
40624;BMP280;26325;48.594;11.650;2022-08-02T01:00:15;96815.63;;;19.03
40624;BMP280;26325;48.594;11.650;2022-08-02T01:02:41;96815.63;;;19.03
40624;BMP280;26325;48.594;11.650;2022-08-02T01:05:07;96810.47;;;18.98
40624;BMP280;26325;48.594;11.650;2022-08-02T01:07:33;96810.06;;;18.91
40624;BMP280;26325;48.594;11.650;2022-08-02T01:09:59;96807.50;;;18.86
40624;BMP280;26325;48.594;11.650;2022-08-02T01:12:25;96797.63;;;18.83
40624;BMP280;26325;48.594;11.650;2022-08-02T01:14:52;96800.25;;;18.83
40624;BMP280;26325;48.594;11.650;2022-08-02T01:22:45;96806.88;;;18.94
40624;BMP280;26325;48.594;11.650;2022-08-02T01:30:49;96792.28;;;19.06
40624;BMP280;26325;48.594;11.650;2022-08-02T01:33:18;96793.44;;;19.13
40624;BMP280;26325;48.594;11.650;2022-08-02T01:35:51;96793.38;;;19.18
40624;BMP280;26325;48.594;11.650;2022-08-02T01:38:37;96801.13;;;19.23
40624;BMP280;26325;48.594;11.650;2022-08-02T01:41:03;96802.09;;;19.27
40624;BMP280;26325;48.594;11.650;2022-08-02T01:43:32;96805.59;;;19.23
40624;BMP280;26325;48.594;11.650;2022-08-02T01:45:58;96798.44;;;19.28
40624;BMP280;26325;48.594;11.650;2022-08-02T01:48:26;96809.13;;;19.31
40624;BMP280;26325;48.594;11.650;2022-08-02T01:50:52;96805.63;;;19.36
40624;BMP280;26325;48.594;11.650;2022-08-02T01:53:21;96803.25;;;19.21
40624;BMP280;26325;48.594;11.650;2022-08-02T01:55:49;96802.38;;;19.12
40624;BMP280;26325;48.594;11.650;2022-08-02T01:58:18;96808.75;;;19.07
40624;BMP280;26325;48.594;11.650;2022-08-02T02:00:45;96806.72;;;19.04
40624;BMP280;26325;48.594;11.650;2022-08-02T02:03:19;96803.59;;;19.02
40624;BMP280;26325;48.594;11.650;2022-08-02T02:05:49;96813.38;;;18.96
40624;BMP280;26325;48.594;11.650;2022-08-02T02:08:19;96820.72;;;18.94
40624;BMP280;26325;48.594;11.650;2022-08-02T02:10:45;96817.81;;;18.96
40624;BMP280;26325;48.594;11.650;2022-08-02T02:13:12;96821.97;;;18.84
40624;BMP280;26325;48.594;11.650;2022-08-02T02:15:56;96815.44;;;18.63
40624;BMP280;26325;48.594;11.650;2022-08-02T02:18:24;96814.28;;;18.51
40624;BMP280;26325;48.594;11.650;2022-08-02T02:20:51;96817.50;;;18.48
40624;BMP280;26325;48.594;11.650;2022-08-02T02:23:17;96813.97;;;18.39
40624;BMP280;26325;48.594;11.650;2022-08-02T02:25:43;96810.56;;;18.39
40624;BMP280;26325;48.594;11.650;2022-08-02T02:28:29;96821.22;;;18.42
40624;BMP280;26325;48.594;11.650;2022-08-02T02:31:06;96823.91;;;18.37
40624;BMP280;26325;48.594;11.650;2022-08-02T02:33:34;96814.28;;;18.33
40624;BMP280;26325;48.594;11.650;2022-08-02T02:36:01;96814.09;;;18.30
40624;BMP280;26325;48.594;11.650;2022-08-02T02:38:29;96817.06;;;18.23
40624;BMP280;26325;48.594;11.650;2022-08-02T02:40:55;96818.38;;;18.21
40624;BMP280;26325;48.594;11.650;2022-08-02T02:43:23;96821.97;;;18.25
40624;BMP280;26325;48.594;11.650;2022-08-02T02:45:49;96826.56;;;18.32
40624;BMP280;26325;48.594;11.650;2022-08-02T02:48:15;96832.00;;;18.41
40624;BMP280;26325;48.594;11.650;2022-08-02T02:50:44;96836.84;;;18.47
40624;BMP280;26325;48.594;11.650;2022-08-02T02:53:11;96832.59;;;18.51
40624;BMP280;26325;48.594;11.650;2022-08-02T02:58:59;96831.97;;;18.59
40624;BMP280;26325;48.594;11.650;2022-08-02T03:01:25;96837.84;;;18.51
40624;BMP280;26325;48.594;11.650;2022-08-02T03:04:01;96843.84;;;18.51
40624;BMP280;26325;48.594;11.650;2022-08-02T03:06:28;96833.19;;;18.48
40624;BMP280;26325;48.594;11.650;2022-08-02T03:11:56;96843.00;;;18.56
40624;BMP280;26325;48.594;11.650;2022-08-02T03:14:26;96844.25;;;18.58
40624;BMP280;26325;48.594;11.650;2022-08-02T03:16:53;96840.94;;;18.53
40624;BMP280;26325;48.594;11.650;2022-08-02T03:19:23;96838.97;;;18.45
40624;BMP280;26325;48.594;11.650;2022-08-02T03:31:51;96851.66;;;18.33
40624;BMP280;26325;48.594;11.650;2022-08-02T03:37:38;96857.09;;;18.19
40624;BMP280;26325;48.594;11.650;2022-08-02T03:40:08;96860.84;;;18.13
40624;BMP280;26325;48.594;11.650;2022-08-02T03:42:35;96857.72;;;18.11
40624;BMP280;26325;48.594;11.650;2022-08-02T03:45:07;96857.47;;;18.08
40624;BMP280;26325;48.594;11.650;2022-08-02T03:47:37;96850.00;;;18.01
40624;BMP280;26325;48.594;11.650;2022-08-02T03:53:18;96844.09;;;17.91
40624;BMP280;26325;48.594;11.650;2022-08-02T03:55:46;96849.47;;;17.99
40624;BMP280;26325;48.594;11.650;2022-08-02T03:58:22;96856.00;;;18.02
40624;BMP280;26325;48.594;11.650;2022-08-02T04:00:48;96868.72;;;18.08
40624;BMP280;26325;48.594;11.650;2022-08-02T04:06:36;96857.94;;;17.92
40624;BMP280;26325;48.594;11.650;2022-08-02T04:12:23;96859.47;;;17.97
40624;BMP280;26325;48.594;11.650;2022-08-02T04:15:14;96862.50;;;18.04
40624;BMP280;26325;48.594;11.650;2022-08-02T04:21:01;96847.22;;;17.93
40624;BMP280;26325;48.594;11.650;2022-08-02T04:27:20;96862.63;;;17.94
40624;BMP280;26325;48.594;11.650;2022-08-02T04:33:08;96865.44;;;17.98
40624;BMP280;26325;48.594;11.650;2022-08-02T04:41:56;96876.25;;;18.14
40624;BMP280;26325;48.594;11.650;2022-08-02T04:47:39;96872.50;;;18.20
40624;BMP280;26325;48.594;11.650;2022-08-02T04:53:11;96871.50;;;18.16
40624;BMP280;26325;48.594;11.650;2022-08-02T04:55:37;96877.94;;;18.24
40624;BMP280;26325;48.594;11.650;2022-08-02T04:58:09;96876.31;;;18.28
40624;BMP280;26325;48.594;11.650;2022-08-02T05:00:42;96886.28;;;18.26
40624;BMP280;26325;48.594;11.650;2022-08-02T05:03:21;96876.78;;;18.12
40624;BMP280;26325;48.594;11.650;2022-08-02T05:06:19;96881.75;;;18.13
40624;BMP280;26325;48.594;11.650;2022-08-02T05:09:20;96884.88;;;18.15
40624;BMP280;26325;48.594;11.650;2022-08-02T05:11:49;96895.16;;;18.25
40624;BMP280;26325;48.594;11.650;2022-08-02T05:14:16;96893.63;;;18.24
40624;BMP280;26325;48.594;11.650;2022-08-02T05:16:42;96901.03;;;18.17
40624;BMP280;26325;48.594;11.650;2022-08-02T05:19:07;96903.00;;;18.25
40624;BMP280;26325;48.594;11.650;2022-08-02T05:21:33;96903.41;;;18.36
40624;BMP280;26325;48.594;11.650;2022-08-02T05:23:58;96898.44;;;18.58
40624;BMP280;26325;48.594;11.650;2022-08-02T05:26:24;96902.16;;;18.75
40624;BMP280;26325;48.594;11.650;2022-08-02T05:28:50;96907.66;;;18.91
40624;BMP280;26325;48.594;11.650;2022-08-02T05:31:17;96906.53;;;18.97
40624;BMP280;26325;48.594;11.650;2022-08-02T05:33:43;96903.81;;;19.02
40624;BMP280;26325;48.594;11.650;2022-08-02T05:36:08;96904.59;;;19.03
40624;BMP280;26325;48.594;11.650;2022-08-02T05:38:34;96913.94;;;19.08
40624;BMP280;26325;48.594;11.650;2022-08-02T05:41:07;96902.34;;;19.14
40624;BMP280;26325;48.594;11.650;2022-08-02T05:43:38;96897.31;;;19.18
40624;BMP280;26325;48.594;11.650;2022-08-02T05:46:04;96903.66;;;19.30
40624;BMP280;26325;48.594;11.650;2022-08-02T05:48:30;96899.31;;;19.39
40624;BMP280;26325;48.594;11.650;2022-08-02T05:51:01;96901.50;;;19.50
40624;BMP280;26325;48.594;11.650;2022-08-02T05:53:41;96898.09;;;19.49
40624;BMP280;26325;48.594;11.650;2022-08-02T05:57:13;96896.75;;;19.52
40624;BMP280;26325;48.594;11.650;2022-08-02T06:02:29;96883.34;;;19.53
40624;BMP280;26325;48.594;11.650;2022-08-02T06:05:19;96886.16;;;19.44
40624;BMP280;26325;48.594;11.650;2022-08-02T06:07:47;96882.44;;;19.45
40624;BMP280;26325;48.594;11.650;2022-08-02T06:10:15;96881.47;;;19.72
40624;BMP280;26325;48.594;11.650;2022-08-02T06:13:12;96897.91;;;19.90
40624;BMP280;26325;48.594;11.650;2022-08-02T06:15:39;96898.41;;;20.19
40624;BMP280;26325;48.594;11.650;2022-08-02T06:18:06;96895.59;;;20.15
40624;BMP280;26325;48.594;11.650;2022-08-02T06:20:33;96902.41;;;20.29
40624;BMP280;26325;48.594;11.650;2022-08-02T06:23:03;96898.13;;;20.33
40624;BMP280;26325;48.594;11.650;2022-08-02T06:25:29;96898.13;;;20.33
40624;BMP280;26325;48.594;11.650;2022-08-02T06:27:56;96889.59;;;20.41
40624;BMP280;26325;48.594;11.650;2022-08-02T06:30:25;96892.50;;;20.53
40624;BMP280;26325;48.594;11.650;2022-08-02T06:32:51;96901.13;;;21.01
40624;BMP280;26325;48.594;11.650;2022-08-02T06:35:34;96900.28;;;21.27
40624;BMP280;26325;48.594;11.650;2022-08-02T06:38:02;96895.19;;;21.73
40624;BMP280;26325;48.594;11.650;2022-08-02T06:40:47;96898.44;;;22.00
40624;BMP280;26325;48.594;11.650;2022-08-02T06:43:22;96904.94;;;22.02
40624;BMP280;26325;48.594;11.650;2022-08-02T06:45:53;96891.19;;;22.52
40624;BMP280;26325;48.594;11.650;2022-08-02T06:48:18;96896.56;;;22.93
40624;BMP280;26325;48.594;11.650;2022-08-02T06:50:44;96888.06;;;23.37
40624;BMP280;26325;48.594;11.650;2022-08-02T06:53:10;96882.44;;;23.64
40624;BMP280;26325;48.594;11.650;2022-08-02T06:55:36;96886.69;;;23.93
40624;BMP280;26325;48.594;11.650;2022-08-02T06:58:01;96893.63;;;24.14
40624;BMP280;26325;48.594;11.650;2022-08-02T07:00:28;96876.84;;;24.46
40624;BMP280;26325;48.594;11.650;2022-08-02T07:02:53;96890.84;;;24.75
40624;BMP280;26325;48.594;11.650;2022-08-02T07:05:19;96890.75;;;25.12
40624;BMP280;26325;48.594;11.650;2022-08-02T07:07:47;96874.72;;;25.48
40624;BMP280;26325;48.594;11.650;2022-08-02T07:10:15;96886.59;;;25.74
40624;BMP280;26325;48.594;11.650;2022-08-02T07:12:41;96887.47;;;26.10
40624;BMP280;26325;48.594;11.650;2022-08-02T07:15:07;96889.03;;;26.46
40624;BMP280;26325;48.594;11.650;2022-08-02T07:17:33;96888.28;;;26.69
40624;BMP280;26325;48.594;11.650;2022-08-02T07:19:59;96887.34;;;27.00
40624;BMP280;26325;48.594;11.650;2022-08-02T07:22:25;96884.22;;;27.21
40624;BMP280;26325;48.594;11.650;2022-08-02T07:24:52;96884.41;;;27.28
40624;BMP280;26325;48.594;11.650;2022-08-02T07:27:20;96880.56;;;27.79
40624;BMP280;26325;48.594;11.650;2022-08-02T07:29:47;96897.47;;;27.21
40624;BMP280;26325;48.594;11.650;2022-08-02T07:32:15;96890.47;;;26.43
40624;BMP280;26325;48.594;11.650;2022-08-02T07:34:41;96891.59;;;26.54
40624;BMP280;26325;48.594;11.650;2022-08-02T07:37:07;96882.59;;;26.94
40624;BMP280;26325;48.594;11.650;2022-08-02T07:39:33;96884.31;;;26.39
40624;BMP280;26325;48.594;11.650;2022-08-02T07:41:58;96880.72;;;26.94
40624;BMP280;26325;48.594;11.650;2022-08-02T07:44:24;96881.03;;;27.16
40624;BMP280;26325;48.594;11.650;2022-08-02T07:46:49;96878.44;;;28.00
40624;BMP280;26325;48.594;11.650;2022-08-02T07:49:15;96886.03;;;28.77
40624;BMP280;26325;48.594;11.650;2022-08-02T07:51:46;96889.59;;;29.33
40624;BMP280;26325;48.594;11.650;2022-08-02T07:54:12;96888.97;;;29.76
40624;BMP280;26325;48.594;11.650;2022-08-02T07:56:37;96890.69;;;30.28
40624;BMP280;26325;48.594;11.650;2022-08-02T07:59:03;96876.69;;;30.56
40624;BMP280;26325;48.594;11.650;2022-08-02T08:01:29;96881.13;;;30.71
40624;BMP280;26325;48.594;11.650;2022-08-02T08:03:54;96888.00;;;31.26
40624;BMP280;26325;48.594;11.650;2022-08-02T08:06:19;96874.91;;;31.14
40624;BMP280;26325;48.594;11.650;2022-08-02T08:08:45;96874.16;;;30.92
40624;BMP280;26325;48.594;11.650;2022-08-02T08:11:11;96875.06;;;30.26
40624;BMP280;26325;48.594;11.650;2022-08-02T08:13:37;96871.75;;;29.52
40624;BMP280;26325;48.594;11.650;2022-08-02T08:16:02;96876.56;;;29.28
40624;BMP280;26325;48.594;11.650;2022-08-02T08:18:28;96865.97;;;29.68
40624;BMP280;26325;48.594;11.650;2022-08-02T08:20:54;96867.28;;;29.56
40624;BMP280;26325;48.594;11.650;2022-08-02T08:23:19;96860.81;;;29.75
40624;BMP280;26325;48.594;11.650;2022-08-02T08:25:47;96872.78;;;29.66
40624;BMP280;26325;48.594;11.650;2022-08-02T08:28:13;96867.19;;;29.52
40624;BMP280;26325;48.594;11.650;2022-08-02T08:30:39;96861.06;;;29.48
40624;BMP280;26325;48.594;11.650;2022-08-02T08:33:06;96871.31;;;30.09
40624;BMP280;26325;48.594;11.650;2022-08-02T08:35:34;96865.88;;;30.71
40624;BMP280;26325;48.594;11.650;2022-08-02T08:38:02;96865.81;;;31.47
40624;BMP280;26325;48.594;11.650;2022-08-02T08:40:27;96857.31;;;32.06
40624;BMP280;26325;48.594;11.650;2022-08-02T08:42:55;96866.66;;;32.29
40624;BMP280;26325;48.594;11.650;2022-08-02T08:45:21;96871.94;;;31.51
40624;BMP280;26325;48.594;11.650;2022-08-02T08:47:51;96873.09;;;31.86
40624;BMP280;26325;48.594;11.650;2022-08-02T08:50:24;96863.84;;;32.12
40624;BMP280;26325;48.594;11.650;2022-08-02T08:53:01;96867.75;;;31.82
40624;BMP280;26325;48.594;11.650;2022-08-02T08:55:28;96862.31;;;32.11
40624;BMP280;26325;48.594;11.650;2022-08-02T08:57:57;96864.75;;;32.79
40624;BMP280;26325;48.594;11.650;2022-08-02T09:00:22;96871.53;;;33.22
40624;BMP280;26325;48.594;11.650;2022-08-02T09:02:50;96871.22;;;33.34
40624;BMP280;26325;48.594;11.650;2022-08-02T09:05:16;96869.34;;;32.75
40624;BMP280;26325;48.594;11.650;2022-08-02T09:07:42;96877.03;;;33.50
40624;BMP280;26325;48.594;11.650;2022-08-02T09:10:30;96878.00;;;34.11
40624;BMP280;26325;48.594;11.650;2022-08-02T09:15:42;96869.78;;;33.57
40624;BMP280;26325;48.594;11.650;2022-08-02T09:18:10;96875.91;;;32.88
40624;BMP280;26325;48.594;11.650;2022-08-02T09:20:55;96880.69;;;31.48
40624;BMP280;26325;48.594;11.650;2022-08-02T09:23:25;96876.34;;;31.37
40624;BMP280;26325;48.594;11.650;2022-08-02T09:28:31;96888.78;;;33.31
40624;BMP280;26325;48.594;11.650;2022-08-02T09:31:08;96892.19;;;32.69
40624;BMP280;26325;48.594;11.650;2022-08-02T09:33:34;96877.31;;;33.28
40624;BMP280;26325;48.594;11.650;2022-08-02T09:36:02;96878.34;;;33.89
40624;BMP280;26325;48.594;11.650;2022-08-02T09:38:31;96886.84;;;34.56
40624;BMP280;26325;48.594;11.650;2022-08-02T09:40:57;96873.03;;;34.27
40624;BMP280;26325;48.594;11.650;2022-08-02T09:43:43;96883.75;;;34.78
40624;BMP280;26325;48.594;11.650;2022-08-02T09:46:13;96868.84;;;34.57
40624;BMP280;26325;48.594;11.650;2022-08-02T09:48:55;96865.22;;;33.54
40624;BMP280;26325;48.594;11.650;2022-08-02T09:53:56;96872.69;;;33.25
40624;BMP280;26325;48.594;11.650;2022-08-02T09:56:22;96861.88;;;32.48
40624;BMP280;26325;48.594;11.650;2022-08-02T09:58:48;96875.56;;;32.01
40624;BMP280;26325;48.594;11.650;2022-08-02T10:01:15;96875.66;;;32.53
40624;BMP280;26325;48.594;11.650;2022-08-02T10:04:04;96877.44;;;33.58
40624;BMP280;26325;48.594;11.650;2022-08-02T10:06:31;96875.34;;;34.66
40624;BMP280;26325;48.594;11.650;2022-08-02T10:08:57;96877.16;;;35.20
40624;BMP280;26325;48.594;11.650;2022-08-02T10:11:23;96873.44;;;35.95
40624;BMP280;26325;48.594;11.650;2022-08-02T10:13:50;96873.69;;;35.37
40624;BMP280;26325;48.594;11.650;2022-08-02T10:16:17;96871.97;;;35.80
40624;BMP280;26325;48.594;11.650;2022-08-02T10:18:46;96866.59;;;36.43
40624;BMP280;26325;48.594;11.650;2022-08-02T10:21:17;96861.91;;;34.93
40624;BMP280;26325;48.594;11.650;2022-08-02T10:23:47;96865.16;;;33.44
40624;BMP280;26325;48.594;11.650;2022-08-02T10:26:15;96861.44;;;32.43
40624;BMP280;26325;48.594;11.650;2022-08-02T10:28:41;96854.38;;;31.47
40624;BMP280;26325;48.594;11.650;2022-08-02T10:31:07;96860.44;;;30.90
40624;BMP280;26325;48.594;11.650;2022-08-02T10:33:34;96859.63;;;31.72
40624;BMP280;26325;48.594;11.650;2022-08-02T10:36:00;96848.47;;;32.97
40624;BMP280;26325;48.594;11.650;2022-08-02T10:38:27;96860.00;;;34.08
40624;BMP280;26325;48.594;11.650;2022-08-02T10:40:55;96850.44;;;34.62
40624;BMP280;26325;48.594;11.650;2022-08-02T10:49:12;96835.44;;;35.09
40624;BMP280;26325;48.594;11.650;2022-08-02T10:54:39;96818.22;;;34.96
40624;BMP280;26325;48.594;11.650;2022-08-02T10:57:22;96819.44;;;34.27
40624;BMP280;26325;48.594;11.650;2022-08-02T11:02:41;96812.38;;;33.37
40624;BMP280;26325;48.594;11.650;2022-08-02T11:07:49;96804.06;;;34.85
40624;BMP280;26325;48.594;11.650;2022-08-02T11:13:16;96785.75;;;34.36
40624;BMP280;26325;48.594;11.650;2022-08-02T11:15:57;96795.28;;;33.86
40624;BMP280;26325;48.594;11.650;2022-08-02T11:21:31;96797.09;;;32.15
40624;BMP280;26325;48.594;11.650;2022-08-02T11:27:19;96783.69;;;31.02
40624;BMP280;26325;48.594;11.650;2022-08-02T11:29:46;96796.09;;;30.62
40624;BMP280;26325;48.594;11.650;2022-08-02T11:32:23;96787.53;;;30.50
40624;BMP280;26325;48.594;11.650;2022-08-02T11:34:50;96793.81;;;30.39
40624;BMP280;26325;48.594;11.650;2022-08-02T11:37:29;96797.75;;;30.23
40624;BMP280;26325;48.594;11.650;2022-08-02T11:39:55;96807.72;;;30.77
40624;BMP280;26325;48.594;11.650;2022-08-02T11:42:20;96792.28;;;31.89
40624;BMP280;26325;48.594;11.650;2022-08-02T11:44:46;96797.78;;;32.06
40624;BMP280;26325;48.594;11.650;2022-08-02T11:47:13;96795.25;;;32.26
40624;BMP280;26325;48.594;11.650;2022-08-02T11:49:39;96806.72;;;32.76
40624;BMP280;26325;48.594;11.650;2022-08-02T11:52:07;96803.59;;;33.47
40624;BMP280;26325;48.594;11.650;2022-08-02T11:54:39;96800.31;;;34.35
40624;BMP280;26325;48.594;11.650;2022-08-02T11:59:38;96800.28;;;34.52
40624;BMP280;26325;48.594;11.650;2022-08-02T12:02:05;96791.03;;;34.87
40624;BMP280;26325;48.594;11.650;2022-08-02T12:04:31;96795.34;;;35.55
40624;BMP280;26325;48.594;11.650;2022-08-02T12:06:57;96779.25;;;35.55
40624;BMP280;26325;48.594;11.650;2022-08-02T12:09:25;96774.78;;;35.32
40624;BMP280;26325;48.594;11.650;2022-08-02T12:11:51;96779.44;;;35.18
40624;BMP280;26325;48.594;11.650;2022-08-02T12:14:17;96786.59;;;35.48
40624;BMP280;26325;48.594;11.650;2022-08-02T12:16:43;96779.50;;;34.94
40624;BMP280;26325;48.594;11.650;2022-08-02T12:19:27;96788.69;;;35.03
40624;BMP280;26325;48.594;11.650;2022-08-02T12:24:39;96780.72;;;36.23
40624;BMP280;26325;48.594;11.650;2022-08-02T12:27:04;96779.41;;;37.17
40624;BMP280;26325;48.594;11.650;2022-08-02T12:29:35;96778.06;;;37.31
40624;BMP280;26325;48.594;11.650;2022-08-02T12:32:01;96778.06;;;36.98
40624;BMP280;26325;48.594;11.650;2022-08-02T12:34:28;96773.72;;;37.37
40624;BMP280;26325;48.594;11.650;2022-08-02T12:39:39;96758.69;;;37.94
40624;BMP280;26325;48.594;11.650;2022-08-02T12:42:06;96761.06;;;38.37
40624;BMP280;26325;48.594;11.650;2022-08-02T12:44:48;96761.03;;;39.01
40624;BMP280;26325;48.594;11.650;2022-08-02T12:47:14;96755.06;;;39.48
40624;BMP280;26325;48.594;11.650;2022-08-02T12:49:40;96749.19;;;39.52
40624;BMP280;26325;48.594;11.650;2022-08-02T12:52:21;96756.81;;;39.73
40624;BMP280;26325;48.594;11.650;2022-08-02T12:54:47;96758.34;;;39.89
40624;BMP280;26325;48.594;11.650;2022-08-02T12:57:18;96751.59;;;40.44
40624;BMP280;26325;48.594;11.650;2022-08-02T12:59:49;96750.66;;;40.50
40624;BMP280;26325;48.594;11.650;2022-08-02T13:02:15;96749.59;;;41.04
40624;BMP280;26325;48.594;11.650;2022-08-02T13:04:41;96742.19;;;40.92
40624;BMP280;26325;48.594;11.650;2022-08-02T13:07:07;96739.84;;;40.78
40624;BMP280;26325;48.594;11.650;2022-08-02T13:09:36;96737.97;;;39.35
40624;BMP280;26325;48.594;11.650;2022-08-02T13:12:03;96739.09;;;38.39
40624;BMP280;26325;48.594;11.650;2022-08-02T13:14:30;96752.59;;;37.36
40624;BMP280;26325;48.594;11.650;2022-08-02T13:16:55;96736.84;;;37.63
40624;BMP280;26325;48.594;11.650;2022-08-02T13:19:23;96735.41;;;38.30
40624;BMP280;26325;48.594;11.650;2022-08-02T13:21:48;96731.59;;;38.69
40624;BMP280;26325;48.594;11.650;2022-08-02T13:24:14;96725.03;;;39.08
40624;BMP280;26325;48.594;11.650;2022-08-02T13:26:41;96734.09;;;37.93
40624;BMP280;26325;48.594;11.650;2022-08-02T13:29:07;96728.88;;;37.56
40624;BMP280;26325;48.594;11.650;2022-08-02T13:31:33;96720.09;;;37.23
40624;BMP280;26325;48.594;11.650;2022-08-02T13:34:02;96723.84;;;36.67
40624;BMP280;26325;48.594;11.650;2022-08-02T13:36:28;96721.47;;;36.73
40624;BMP280;26325;48.594;11.650;2022-08-02T13:38:54;96715.38;;;37.82
40624;BMP280;26325;48.594;11.650;2022-08-02T13:41:19;96706.91;;;38.06
40624;BMP280;26325;48.594;11.650;2022-08-02T13:43:45;96704.75;;;37.72
40624;BMP280;26325;48.594;11.650;2022-08-02T13:46:10;96707.69;;;37.81
40624;BMP280;26325;48.594;11.650;2022-08-02T13:48:35;96702.22;;;38.33
40624;BMP280;26325;48.594;11.650;2022-08-02T13:51:01;96695.53;;;38.40
40624;BMP280;26325;48.594;11.650;2022-08-02T13:53:27;96694.22;;;38.48
40624;BMP280;26325;48.594;11.650;2022-08-02T13:55:53;96698.69;;;38.96
40624;BMP280;26325;48.594;11.650;2022-08-02T13:58:18;96686.47;;;39.61
40624;BMP280;26325;48.594;11.650;2022-08-02T14:00:44;96688.81;;;39.24
40624;BMP280;26325;48.594;11.650;2022-08-02T14:03:11;96689.91;;;38.32
40624;BMP280;26325;48.594;11.650;2022-08-02T14:05:38;96700.13;;;37.73
40624;BMP280;26325;48.594;11.650;2022-08-02T14:08:04;96693.91;;;38.01
40624;BMP280;26325;48.594;11.650;2022-08-02T14:10:32;96688.19;;;38.41
40624;BMP280;26325;48.594;11.650;2022-08-02T14:12:57;96687.97;;;38.32
40624;BMP280;26325;48.594;11.650;2022-08-02T14:15:23;96677.00;;;38.42
40624;BMP280;26325;48.594;11.650;2022-08-02T14:17:48;96683.09;;;37.79
40624;BMP280;26325;48.594;11.650;2022-08-02T14:20:18;96674.09;;;38.11
40624;BMP280;26325;48.594;11.650;2022-08-02T14:22:46;96670.97;;;39.11
40624;BMP280;26325;48.594;11.650;2022-08-02T14:25:12;96678.47;;;39.38
40624;BMP280;26325;48.594;11.650;2022-08-02T14:27:37;96677.47;;;38.79
40624;BMP280;26325;48.594;11.650;2022-08-02T14:30:03;96686.13;;;37.81
40624;BMP280;26325;48.594;11.650;2022-08-02T14:32:28;96667.00;;;38.81
40624;BMP280;26325;48.594;11.650;2022-08-02T14:34:54;96680.47;;;39.69
40624;BMP280;26325;48.594;11.650;2022-08-02T14:37:22;96672.66;;;40.18
40624;BMP280;26325;48.594;11.650;2022-08-02T14:39:50;96676.00;;;40.53
40624;BMP280;26325;48.594;11.650;2022-08-02T14:42:15;96674.25;;;40.74
40624;BMP280;26325;48.594;11.650;2022-08-02T14:44:41;96678.91;;;38.83
40624;BMP280;26325;48.594;11.650;2022-08-02T14:47:06;96672.81;;;37.96
40624;BMP280;26325;48.594;11.650;2022-08-02T14:49:32;96671.97;;;38.22
40624;BMP280;26325;48.594;11.650;2022-08-02T14:51:58;96669.13;;;38.70
40624;BMP280;26325;48.594;11.650;2022-08-02T14:54:24;96674.16;;;38.49
40624;BMP280;26325;48.594;11.650;2022-08-02T14:56:56;96670.53;;;37.69
40624;BMP280;26325;48.594;11.650;2022-08-02T14:59:22;96675.34;;;37.58
40624;BMP280;26325;48.594;11.650;2022-08-02T15:01:47;96674.22;;;37.01
40624;BMP280;26325;48.594;11.650;2022-08-02T15:04:15;96667.31;;;36.35
40624;BMP280;26325;48.594;11.650;2022-08-02T15:06:42;96666.03;;;36.10
40624;BMP280;26325;48.594;11.650;2022-08-02T15:09:08;96676.44;;;35.58
40624;BMP280;26325;48.594;11.650;2022-08-02T15:11:34;96668.41;;;34.88
40624;BMP280;26325;48.594;11.650;2022-08-02T15:14:01;96664.72;;;34.51
40624;BMP280;26325;48.594;11.650;2022-08-02T15:16:27;96666.34;;;34.01
40624;BMP280;26325;48.594;11.650;2022-08-02T15:18:55;96667.81;;;34.29
40624;BMP280;26325;48.594;11.650;2022-08-02T15:21:20;96666.69;;;34.41
40624;BMP280;26325;48.594;11.650;2022-08-02T15:23:45;96663.81;;;34.88
40624;BMP280;26325;48.594;11.650;2022-08-02T15:26:11;96659.63;;;35.51
40624;BMP280;26325;48.594;11.650;2022-08-02T15:28:36;96657.97;;;35.63
40624;BMP280;26325;48.594;11.650;2022-08-02T15:31:07;96666.75;;;35.71
40624;BMP280;26325;48.594;11.650;2022-08-02T15:33:32;96657.16;;;36.16
40624;BMP280;26325;48.594;11.650;2022-08-02T15:35:58;96665.28;;;36.45
40624;BMP280;26325;48.594;11.650;2022-08-02T15:38:23;96662.75;;;36.68
40624;BMP280;26325;48.594;11.650;2022-08-02T15:40:49;96662.03;;;36.64
40624;BMP280;26325;48.594;11.650;2022-08-02T15:43:17;96655.81;;;36.34
40624;BMP280;26325;48.594;11.650;2022-08-02T15:45:42;96648.91;;;35.94
40624;BMP280;26325;48.594;11.650;2022-08-02T15:48:08;96665.78;;;35.44
40624;BMP280;26325;48.594;11.650;2022-08-02T15:50:33;96656.81;;;35.08